createdAt,value
2018-02-22T00:00:26.263Z,77.20
2018-02-22T00:02:53.907Z,77.20
2018-02-22T00:05:21.480Z,77.30
2018-02-22T00:07:49.130Z,77.20
2018-02-22T00:10:16.699Z,77.30
2018-02-22T00:12:44.286Z,77.30
2018-02-22T00:15:12.613Z,77.40
2018-02-22T00:17:40.168Z,77.20
2018-02-22T00:20:07.746Z,77.50
2018-02-22T00:22:35.320Z,77.40
2018-02-22T00:25:03.694Z,77.40
2018-02-22T00:27:31.271Z,77.40
2018-02-22T00:29:58.820Z,77.40
2018-02-22T00:32:26.414Z,77.40
2018-02-22T00:34:54.765Z,77.80
2018-02-22T00:37:22.427Z,77.70
2018-02-22T00:39:50.004Z,77.90
2018-02-22T00:42:17.568Z,77.90
2018-02-22T00:44:45.906Z,78.20
2018-02-22T00:47:13.463Z,78.10
2018-02-22T00:49:41.147Z,78.30
2018-02-22T00:52:08.813Z,78.40
2018-02-22T00:54:36.544Z,78.60
2018-02-22T00:57:04.117Z,78.60
2018-02-22T00:59:31.672Z,78.70
2018-02-22T01:01:59.264Z,78.80
2018-02-22T01:04:26.883Z,78.90
2018-02-22T01:06:55.175Z,79.00
2018-02-22T01:09:22.739Z,79.00
2018-02-22T01:11:50.417Z,79.00
2018-02-22T01:14:18.069Z,78.90
2018-02-22T01:16:45.705Z,79.00
2018-02-22T01:19:13.386Z,79.20
2018-02-22T01:21:40.938Z,79.30
2018-02-22T01:24:08.530Z,79.20
2018-02-22T01:26:36.107Z,79.40
2018-02-22T01:29:03.760Z,79.40
2018-02-22T01:31:31.424Z,79.40
2018-02-22T01:33:59.078Z,79.70
2018-02-22T01:36:26.631Z,79.80
2018-02-22T01:38:54.301Z,80.00
2018-02-22T01:41:21.868Z,80.10
2018-02-22T01:43:49.421Z,80.20
2018-02-22T01:46:16.983Z,80.20
2018-02-22T01:48:44.553Z,80.30
2018-02-22T01:51:12.215Z,80.40
2018-02-22T01:53:39.770Z,80.40
2018-02-22T01:56:07.434Z,80.50
2018-02-22T01:58:35.096Z,80.50
2018-02-22T02:01:02.651Z,80.50
2018-02-22T02:03:30.228Z,80.60
2018-02-22T02:05:57.887Z,80.60
2018-02-22T02:08:25.436Z,80.60
2018-02-22T02:10:53.002Z,80.60
2018-02-22T02:13:20.562Z,80.90
2018-02-22T02:15:48.115Z,80.80
2018-02-22T02:18:15.782Z,80.80
2018-02-22T02:20:43.463Z,80.90
2018-02-22T02:23:12.625Z,81.10
2018-02-22T02:25:40.289Z,81.10
2018-02-22T02:28:07.852Z,81.20
2018-02-22T02:30:35.427Z,81.20
2018-02-22T02:33:03.092Z,81.20
2018-02-22T02:35:30.657Z,81.30
2018-02-22T02:37:58.316Z,81.50
2018-02-22T02:40:25.896Z,81.60
2018-02-22T02:42:53.448Z,81.60
2018-02-22T02:45:21.006Z,81.80
2018-02-22T02:47:48.663Z,81.70
2018-02-22T02:50:16.212Z,81.80
2018-02-22T02:52:43.796Z,81.90
2018-02-22T02:55:11.464Z,81.70
2018-02-22T02:57:39.036Z,81.90
2018-02-22T03:00:06.692Z,81.90
2018-02-22T03:02:34.247Z,82.80
2018-02-22T03:05:01.901Z,82.10
2018-02-22T03:07:29.466Z,82.00
2018-02-22T03:09:57.018Z,81.90
2018-02-22T03:12:24.680Z,81.90
2018-02-22T03:14:52.247Z,82.00
2018-02-22T03:17:19.813Z,81.90
2018-02-22T03:19:47.462Z,82.00
2018-02-22T03:22:15.012Z,82.10
2018-02-22T03:24:42.583Z,82.10
2018-02-22T03:27:10.150Z,82.10
2018-02-22T03:29:37.808Z,82.00
2018-02-22T03:32:05.372Z,82.10
2018-02-22T03:34:32.927Z,82.20
2018-02-22T03:37:00.466Z,82.20
2018-02-22T03:39:28.014Z,82.10
2018-02-22T03:41:55.575Z,82.10
2018-02-22T03:44:23.188Z,82.10
2018-02-22T03:46:50.756Z,82.10
2018-02-22T03:49:18.402Z,82.10
2018-02-22T03:51:46.045Z,82.30
2018-02-22T03:54:13.711Z,82.30
2018-02-22T03:56:41.281Z,82.30
2018-02-22T03:59:08.831Z,82.30
2018-02-22T04:01:36.398Z,82.10
2018-02-22T04:04:03.951Z,82.40
2018-02-22T04:06:31.500Z,82.30
2018-02-22T04:08:59.064Z,82.30
2018-02-22T04:11:26.632Z,82.40
2018-02-22T04:13:54.210Z,82.40
2018-02-22T04:16:21.883Z,82.40
2018-02-22T04:18:49.446Z,82.50
2018-02-22T04:21:17.011Z,82.50
2018-02-22T04:23:44.554Z,82.70
2018-02-22T04:26:12.118Z,82.50
2018-02-22T04:28:39.690Z,82.40
2018-02-22T04:31:07.347Z,82.40
2018-02-22T04:33:34.908Z,82.40
2018-02-22T04:36:02.476Z,82.40
2018-02-22T04:38:30.033Z,82.70
2018-02-22T04:40:57.595Z,82.50
2018-02-22T04:43:25.251Z,82.50
2018-02-22T04:45:52.801Z,82.50
2018-02-22T04:48:20.350Z,82.50
2018-02-22T04:50:47.920Z,82.50
2018-02-22T04:53:15.483Z,82.50
2018-02-22T04:55:43.053Z,82.30
2018-02-22T04:58:10.738Z,82.20
2018-02-22T05:00:38.378Z,82.10
2018-02-22T05:03:05.928Z,82.00
2018-02-22T05:05:33.493Z,82.00
2018-02-22T05:08:01.063Z,82.00
2018-02-22T05:10:28.627Z,81.90
2018-02-22T05:12:56.193Z,81.80
2018-02-22T05:15:23.769Z,81.80
2018-02-22T05:17:52.841Z,81.80
2018-02-22T05:20:20.397Z,81.80
2018-02-22T05:22:48.071Z,81.80
2018-02-22T05:25:15.647Z,81.60
2018-02-22T05:27:43.293Z,81.60
2018-02-22T05:30:10.961Z,81.60
2018-02-22T05:32:38.532Z,81.60
2018-02-22T05:35:06.083Z,81.60
2018-02-22T05:37:33.645Z,81.40
2018-02-22T05:40:01.197Z,81.50
2018-02-22T05:42:28.806Z,81.50
2018-02-22T05:44:56.440Z,81.60
2018-02-22T05:47:54.516Z,81.50
2018-02-22T05:50:22.116Z,81.50
2018-02-22T05:52:49.679Z,81.40
2018-02-22T05:55:17.374Z,81.50
2018-02-22T05:57:45.058Z,81.50
2018-02-22T06:00:12.628Z,81.40
2018-02-22T06:02:40.284Z,81.50
2018-02-22T06:05:07.934Z,81.50
2018-02-22T06:07:35.487Z,81.50
2018-02-22T06:10:03.052Z,81.40
2018-02-22T06:12:30.634Z,81.40
2018-02-22T06:14:58.212Z,81.40
2018-02-22T06:17:25.778Z,81.30
2018-02-22T06:19:54.127Z,81.30
2018-02-22T06:22:21.681Z,81.30
2018-02-22T06:24:49.230Z,81.20
2018-02-22T06:27:16.812Z,81.10
2018-02-22T06:29:44.379Z,81.10
2018-02-22T06:32:11.937Z,81.00
2018-02-22T06:34:39.538Z,81.00
2018-02-22T06:37:07.144Z,81.00
2018-02-22T06:39:34.719Z,80.90
2018-02-22T06:42:02.296Z,80.90
2018-02-22T06:44:29.864Z,81.00
2018-02-22T06:46:57.435Z,80.90
2018-02-22T06:49:25.760Z,81.00
2018-02-22T06:51:53.343Z,81.00
2018-02-22T06:54:20.937Z,81.00
2018-02-22T06:56:49.285Z,81.20
2018-02-22T06:59:16.840Z,81.20
2018-02-22T07:01:44.400Z,81.20
2018-02-22T07:04:12.075Z,81.10
2018-02-22T07:06:40.453Z,81.10
2018-02-22T07:09:08.025Z,81.20
2018-02-22T07:11:35.602Z,81.00
2018-02-22T07:14:03.924Z,80.90
2018-02-22T07:16:31.478Z,80.90
2018-02-22T07:18:59.057Z,80.90
2018-02-22T07:21:26.611Z,80.90
2018-02-22T07:23:54.163Z,80.70
2018-02-22T07:26:21.743Z,80.80
2018-02-22T07:28:49.425Z,80.60
2018-02-22T07:31:18.480Z,80.50
2018-02-22T07:33:46.063Z,80.40
2018-02-22T07:36:13.609Z,80.50
2018-02-22T07:38:41.172Z,80.40
2018-02-22T07:41:08.750Z,80.30
2018-02-22T07:43:36.320Z,80.30
2018-02-22T07:46:03.974Z,79.70
2018-02-22T07:48:31.645Z,80.00
2018-02-22T07:50:59.310Z,79.60
2018-02-22T07:53:26.880Z,80.00
2018-02-22T07:55:54.545Z,79.50
2018-02-22T07:58:22.863Z,79.60
2018-02-22T08:00:50.417Z,79.70
2018-02-22T08:03:18.849Z,79.20
2018-02-22T08:05:46.399Z,79.20
2018-02-22T08:08:13.967Z,78.80
2018-02-22T08:10:41.535Z,79.20
2018-02-22T08:13:09.206Z,78.80
2018-02-22T08:15:36.859Z,78.60
2018-02-22T08:18:04.531Z,78.50
2018-02-22T08:20:32.189Z,78.00
2018-02-22T08:22:59.742Z,78.20
2018-02-22T08:25:27.414Z,78.30
2018-02-22T08:27:55.002Z,77.90
2018-02-22T08:30:23.347Z,77.40
2018-02-22T08:32:50.989Z,77.40
2018-02-22T08:35:18.544Z,77.40
2018-02-22T08:37:46.135Z,77.30
2018-02-22T08:40:13.727Z,77.50
2018-02-22T08:42:42.053Z,76.80
2018-02-22T08:45:09.634Z,76.80
2018-02-22T08:47:37.198Z,76.40
2018-02-22T08:50:04.747Z,76.00
2018-02-22T08:52:32.336Z,75.70
2018-02-22T08:54:59.924Z,76.00
2018-02-22T08:57:28.347Z,76.00
2018-02-22T08:59:55.916Z,75.90
2018-02-22T09:02:23.574Z,75.10
2018-02-22T09:04:51.127Z,74.60
2018-02-22T09:07:18.730Z,74.30
2018-02-22T09:09:46.382Z,74.00
2018-02-22T09:12:13.933Z,73.40
2018-02-22T09:14:41.602Z,73.50
2018-02-22T09:17:09.178Z,73.30
2018-02-22T09:19:36.744Z,73.10
2018-02-22T09:22:05.071Z,72.90
2018-02-22T09:24:32.649Z,72.80
2018-02-22T09:27:00.206Z,73.00
2018-02-22T09:29:27.779Z,72.30
2018-02-22T09:31:55.356Z,72.20
2018-02-22T09:34:22.924Z,72.00
2018-02-22T09:36:50.479Z,70.70
2018-02-22T09:39:18.837Z,70.80
2018-02-22T09:41:47.366Z,70.90
2018-02-22T09:44:14.960Z,70.10
2018-02-22T09:46:42.557Z,69.40
2018-02-22T09:49:10.108Z,68.80
2018-02-22T09:51:37.668Z,68.50
2018-02-22T09:54:05.320Z,70.00
2018-02-22T09:56:32.885Z,68.10
2018-02-22T09:59:00.451Z,67.80
2018-02-22T10:01:28.005Z,67.30
2018-02-22T10:03:55.546Z,67.40
2018-02-22T10:06:23.103Z,67.60
2018-02-22T10:08:50.678Z,67.70
2018-02-22T10:11:18.236Z,66.40
2018-02-22T10:13:45.802Z,66.10
2018-02-22T10:16:13.382Z,66.60
2018-02-22T10:18:40.932Z,66.70
2018-02-22T10:21:08.495Z,66.90
2018-02-22T10:23:36.054Z,67.50
2018-02-22T10:26:03.603Z,65.80
2018-02-22T10:28:31.155Z,64.50
2018-02-22T10:30:58.724Z,65.20
2018-02-22T10:33:26.327Z,65.00
2018-02-22T10:35:53.878Z,64.20
2018-02-22T10:38:21.522Z,63.20
2018-02-22T10:40:49.080Z,63.10
2018-02-22T10:43:16.639Z,64.50
2018-02-22T10:45:44.183Z,61.50
2018-02-22T10:48:11.786Z,60.90
2018-02-22T10:50:39.379Z,59.50
2018-02-22T10:53:07.816Z,60.30
2018-02-22T10:55:35.359Z,60.20
2018-02-22T10:58:02.958Z,58.60
2018-02-22T11:00:36.305Z,58.90
2018-02-22T11:03:03.854Z,59.00
2018-02-22T11:05:31.397Z,58.70
2018-02-22T11:07:59.834Z,57.70
2018-02-22T11:10:27.386Z,57.60
2018-02-22T11:12:54.951Z,57.20
2018-02-22T11:15:22.520Z,57.50
2018-02-22T11:17:50.079Z,57.60
2018-02-22T11:20:17.750Z,57.60
2018-02-22T11:22:45.413Z,55.90
2018-02-22T11:25:12.963Z,56.20
2018-02-22T11:27:40.629Z,56.30
2018-02-22T11:30:08.202Z,55.50
2018-02-22T11:32:36.593Z,55.40
2018-02-22T11:35:04.147Z,55.40
2018-02-22T11:37:31.715Z,55.80
2018-02-22T11:40:00.793Z,54.60
2018-02-22T11:42:28.343Z,54.50
2018-02-22T11:44:56.026Z,54.50
2018-02-22T11:47:23.592Z,55.10
2018-02-22T11:49:51.132Z,54.40
2018-02-22T11:52:18.800Z,54.50
2018-02-22T11:54:46.469Z,52.70
2018-02-22T11:57:14.047Z,51.80
2018-02-22T11:59:42.394Z,52.60
2018-02-22T12:02:09.954Z,52.50
2018-02-22T12:04:37.510Z,52.30
2018-02-22T12:07:05.086Z,52.10
2018-02-22T12:09:32.646Z,53.00
2018-02-22T12:12:00.309Z,53.40
2018-02-22T12:14:27.889Z,52.90
2018-02-22T12:16:55.443Z,52.90
2018-02-22T12:19:23.028Z,51.70
2018-02-22T12:21:50.595Z,51.80
2018-02-22T12:24:19.016Z,52.30
2018-02-22T12:26:46.576Z,52.30
2018-02-22T12:29:14.253Z,51.40
2018-02-22T12:31:41.902Z,50.40
2018-02-22T12:34:09.468Z,51.40
2018-02-22T12:36:37.034Z,51.70
2018-02-22T12:39:04.696Z,52.40
2018-02-22T12:41:32.349Z,52.20
2018-02-22T12:43:59.915Z,52.70
2018-02-22T12:46:27.476Z,51.90
2018-02-22T12:48:55.040Z,51.50
2018-02-22T12:51:22.607Z,50.70
2018-02-22T12:53:50.174Z,50.20
2018-02-22T12:56:17.773Z,50.70
2018-02-22T12:58:45.333Z,50.10
2018-02-22T13:01:13.669Z,50.60
2018-02-22T13:03:41.319Z,50.60
2018-02-22T13:06:08.911Z,50.00
2018-02-22T13:08:36.477Z,49.60
2018-02-22T13:11:04.800Z,48.80
2018-02-22T13:16:05.371Z,48.80
2018-02-22T13:18:32.921Z,47.40
2018-02-22T13:21:00.471Z,47.50
2018-02-22T13:23:28.047Z,47.90
2018-02-22T13:25:55.721Z,47.90
2018-02-22T13:28:23.276Z,48.50
2018-02-22T13:30:50.829Z,48.80
2018-02-22T13:33:30.273Z,50.20
2018-02-22T13:35:57.835Z,51.00
2018-02-22T13:38:37.248Z,51.40
2018-02-22T13:41:04.818Z,51.70
2018-02-22T13:43:32.391Z,51.80
2018-02-22T13:46:00.069Z,51.90
2018-02-22T13:48:39.502Z,51.90
2018-02-22T13:51:11.589Z,51.50
2018-02-22T13:53:39.945Z,52.40
2018-02-22T13:56:07.581Z,52.40
2018-02-22T13:58:35.149Z,51.90
2018-02-22T14:01:14.544Z,51.00
2018-02-22T14:03:42.874Z,51.70
2018-02-22T14:06:10.439Z,51.50
2018-02-22T14:08:45.986Z,50.50
2018-02-22T14:11:13.641Z,50.90
2018-02-22T14:13:41.191Z,50.90
2018-02-22T14:16:08.776Z,51.40
2018-02-22T14:18:36.321Z,50.80
2018-02-22T14:21:03.884Z,49.50
2018-02-22T14:23:31.460Z,50.80
2018-02-22T14:25:59.054Z,51.10
2018-02-22T14:28:27.368Z,51.30
2018-02-22T14:30:54.946Z,51.20
2018-02-22T14:33:22.502Z,51.50
2018-02-22T14:35:50.075Z,50.70
2018-02-22T14:38:17.650Z,50.50
2018-02-22T14:40:45.221Z,49.80
2018-02-22T14:43:13.540Z,51.40
2018-02-22T14:45:41.122Z,51.40
2018-02-22T14:48:08.677Z,50.40
2018-02-22T14:50:36.248Z,50.80
2018-02-22T14:53:03.841Z,52.00
2018-02-22T14:55:32.992Z,50.50
2018-02-22T14:58:00.524Z,50.50
2018-02-22T15:00:28.112Z,50.60
2018-02-22T15:02:55.649Z,50.20
2018-02-22T15:05:23.201Z,50.80
2018-02-22T15:07:51.629Z,50.10
2018-02-22T15:10:19.298Z,50.00
2018-02-22T15:12:46.853Z,50.50
2018-02-22T15:15:14.400Z,51.30
2018-02-22T15:17:41.952Z,50.90
2018-02-22T15:20:09.533Z,50.90
2018-02-22T15:22:37.100Z,50.80
2018-02-22T15:25:04.711Z,52.10
2018-02-22T15:27:33.026Z,50.10
2018-02-22T15:30:00.591Z,50.10
2018-02-22T15:32:28.148Z,49.50
2018-02-22T15:34:55.806Z,48.50
2018-02-22T15:37:23.404Z,49.40
2018-02-22T15:39:51.039Z,49.80
2018-02-22T15:42:18.691Z,50.20
2018-02-22T15:44:46.255Z,50.50
2018-02-22T15:47:13.812Z,50.80
2018-02-22T15:49:41.357Z,50.40
2018-02-22T15:52:08.933Z,51.10
2018-02-22T15:54:36.498Z,51.60
2018-02-22T15:57:04.049Z,51.70
2018-02-22T15:59:31.644Z,51.90
2018-02-22T16:01:59.202Z,52.00
2018-02-22T16:04:26.764Z,51.60
2018-02-22T16:06:54.334Z,51.40
2018-02-22T16:09:22.671Z,51.70
2018-02-22T16:11:50.238Z,51.70
2018-02-22T16:14:17.903Z,50.90
2018-02-22T16:16:45.459Z,50.80
2018-02-22T16:19:13.099Z,50.60
2018-02-22T16:21:40.680Z,51.00
2018-02-22T16:24:08.259Z,50.60
2018-02-22T16:26:35.820Z,50.40
2018-02-22T16:29:03.392Z,50.70
2018-02-22T16:31:30.941Z,50.40
2018-02-22T16:33:58.506Z,50.20
2018-02-22T16:36:26.159Z,50.70
2018-02-22T16:38:53.718Z,50.60
2018-02-22T16:41:21.281Z,51.10
2018-02-22T16:43:48.830Z,51.60
2018-02-22T16:46:16.417Z,51.80
2018-02-22T16:48:44.768Z,52.70
2018-02-22T16:51:12.437Z,52.70
2018-02-22T16:53:40.096Z,53.30
2018-02-22T16:56:07.652Z,53.50
2018-02-22T16:58:35.216Z,53.70
2018-02-22T17:01:02.773Z,53.70
2018-02-22T17:03:30.331Z,54.10
2018-02-22T17:05:57.910Z,53.40
2018-02-22T17:08:25.503Z,54.30
2018-02-22T17:10:53.045Z,54.20
2018-02-22T17:13:20.614Z,53.90
2018-02-22T17:15:48.964Z,54.80
2018-02-22T17:18:16.521Z,54.20
2018-02-22T17:20:44.078Z,54.40
2018-02-22T17:23:11.645Z,54.70
2018-02-22T17:25:38.721Z,54.90
2018-02-22T17:28:12.067Z,55.10
2018-02-22T17:30:45.335Z,54.80
2018-02-22T17:33:13.763Z,55.50
2018-02-22T17:35:47.053Z,55.40
2018-02-22T17:41:14.039Z,55.50
2018-02-22T17:43:41.631Z,56.00
2018-02-22T17:46:09.965Z,56.10
2018-02-22T17:48:37.527Z,56.00
2018-02-22T17:51:05.185Z,56.30
2018-02-22T17:53:32.737Z,56.70
2018-02-22T17:56:00.283Z,56.90
2018-02-22T17:58:27.846Z,57.30
2018-02-22T18:00:55.412Z,57.40
2018-02-22T18:03:22.965Z,57.70
2018-02-22T18:05:50.552Z,57.50
2018-02-22T18:08:18.102Z,57.30
2018-02-22T18:10:45.675Z,57.40
2018-02-22T18:13:13.249Z,58.00
2018-02-22T18:15:40.811Z,58.10
2018-02-22T18:18:08.565Z,58.30
2018-02-22T18:20:36.122Z,58.30
2018-02-22T18:23:03.680Z,58.60
2018-02-22T18:25:31.248Z,58.90
2018-02-22T18:27:58.968Z,58.40
2018-02-22T18:30:26.537Z,58.50
2018-02-22T18:32:54.099Z,58.60
2018-02-22T18:35:21.668Z,58.80
2018-02-22T18:37:54.930Z,58.70
2018-02-22T18:40:28.908Z,58.80
2018-02-22T18:42:56.484Z,58.80
2018-02-22T18:45:24.825Z,58.80
2018-02-22T18:47:52.417Z,58.70
2018-02-22T18:50:20.763Z,59.10
2018-02-22T18:52:48.340Z,59.00
2018-02-22T18:55:16.783Z,59.80
2018-02-22T18:57:44.342Z,59.20
2018-02-22T19:00:11.906Z,59.20
2018-02-22T19:02:39.525Z,59.10
2018-02-22T19:05:07.853Z,59.60
2018-02-22T19:07:35.443Z,59.50
2018-02-22T19:10:03.016Z,60.40
2018-02-22T19:12:31.344Z,59.80
2018-02-22T19:14:58.897Z,59.70
2018-02-22T19:17:26.487Z,59.80
2018-02-22T19:19:54.161Z,59.80
2018-02-22T19:22:21.821Z,60.00
2018-02-22T19:24:49.396Z,60.40
2018-02-22T19:27:16.947Z,60.50
2018-02-22T19:29:44.499Z,60.30
2018-02-22T19:32:12.131Z,60.60
2018-02-22T19:34:40.575Z,61.40
2018-02-22T19:37:08.937Z,61.50
2018-02-22T19:39:36.512Z,61.40
2018-02-22T19:42:05.077Z,61.50
2018-02-22T19:44:32.652Z,61.50
2018-02-22T19:47:01.045Z,61.80
2018-02-22T19:49:29.454Z,62.00
2018-02-22T19:51:56.995Z,61.90
2018-02-22T19:54:25.338Z,62.60
2018-02-22T19:56:52.888Z,62.60
2018-02-22T19:59:21.264Z,62.90
2018-02-22T20:01:48.927Z,62.90
2018-02-22T20:04:16.482Z,63.40
2018-02-22T20:06:44.222Z,63.70
2018-02-22T20:09:11.834Z,63.70
2018-02-22T20:11:40.213Z,63.60
2018-02-22T20:14:08.539Z,63.70
2018-02-22T20:16:36.100Z,63.70
2018-02-22T20:19:03.651Z,63.80
2018-02-22T20:21:31.246Z,64.00
2018-02-22T20:23:58.941Z,64.10
2018-02-22T20:26:27.293Z,64.00
2018-02-22T20:28:54.863Z,64.80
2018-02-22T20:31:22.439Z,64.10
2018-02-22T20:33:50.771Z,64.40
2018-02-22T20:36:18.320Z,64.40
2018-02-22T20:38:45.889Z,64.40
2018-02-22T20:41:13.444Z,64.80
2018-02-22T20:43:40.997Z,64.80
2018-02-22T20:46:08.600Z,65.00
2018-02-22T20:48:36.147Z,64.90
2018-02-22T20:51:07.358Z,64.60
2018-02-22T20:53:35.510Z,64.80
2018-02-22T20:56:06.494Z,65.00
2018-02-22T20:58:35.039Z,65.00
2018-02-22T21:01:02.624Z,65.00
2018-02-22T21:03:33.178Z,64.80
2018-02-22T21:06:00.776Z,65.40
2018-02-22T21:08:29.110Z,65.20
2018-02-22T21:10:56.695Z,65.10
2018-02-22T21:13:24.278Z,64.90
2018-02-22T21:15:52.677Z,65.40
2018-02-22T21:18:20.236Z,65.30
2018-02-22T21:20:47.819Z,65.50
2018-02-22T21:23:15.371Z,65.50
2018-02-22T21:25:42.978Z,65.60
2018-02-22T21:28:10.574Z,65.90
2018-02-22T21:30:38.889Z,65.90
2018-02-22T21:33:06.476Z,65.90
2018-02-22T21:35:34.133Z,66.10
2018-02-22T21:38:01.671Z,66.20
2018-02-22T21:40:29.337Z,66.50
2018-02-22T21:42:56.923Z,66.50
2018-02-22T21:45:24.478Z,66.40
2018-02-22T21:47:52.089Z,66.40
2018-02-22T21:50:19.644Z,66.90
2018-02-22T21:52:47.963Z,67.00
2018-02-22T21:55:15.544Z,67.00
2018-02-22T21:57:43.123Z,66.90
2018-02-22T22:00:10.682Z,66.90
2018-02-22T22:02:39.007Z,67.10
2018-02-22T22:05:06.602Z,67.10
2018-02-22T22:07:34.253Z,67.30
2018-02-22T22:10:01.826Z,67.40
2018-02-22T22:12:29.401Z,67.50
2018-02-22T22:14:56.958Z,67.50
2018-02-22T22:17:24.507Z,67.60
2018-02-22T22:19:52.080Z,67.40
2018-02-22T22:22:19.637Z,67.50
2018-02-22T22:24:47.301Z,67.50
2018-02-22T22:27:16.385Z,67.90
2018-02-22T22:29:43.963Z,67.80
2018-02-22T22:32:11.548Z,68.00
2018-02-22T22:34:39.991Z,68.10
2018-02-22T22:37:07.674Z,68.00
2018-02-22T22:39:36.753Z,68.30
2018-02-22T22:42:04.329Z,68.20
2018-02-22T22:44:31.894Z,67.90
2018-02-22T22:46:59.551Z,67.90
2018-02-22T22:49:27.136Z,68.00
2018-02-22T22:51:55.483Z,68.20
2018-02-22T22:54:23.042Z,68.20
2018-02-22T22:56:50.631Z,68.20
2018-02-22T22:59:18.190Z,68.30
2018-02-22T23:01:47.257Z,68.60
2018-02-22T23:04:14.935Z,68.50
2018-02-22T23:06:42.489Z,68.10
2018-02-22T23:09:10.066Z,68.10
2018-02-22T23:11:37.706Z,68.20
2018-02-22T23:14:05.369Z,68.10
2018-02-22T23:16:32.931Z,68.00
2018-02-22T23:19:00.501Z,68.30
2018-02-22T23:21:28.055Z,68.10
2018-02-22T23:23:55.618Z,68.10
2018-02-22T23:26:23.200Z,67.80
2018-02-22T23:28:50.770Z,68.40
2018-02-22T23:31:19.093Z,67.40
2018-02-22T23:33:46.703Z,67.40
2018-02-22T23:36:14.267Z,67.20
2018-02-22T23:38:41.828Z,66.90
2018-02-22T23:41:11.305Z,67.10
2018-02-22T23:43:38.865Z,67.40
2018-02-22T23:46:06.425Z,66.30
2018-02-22T23:48:33.998Z,66.20
2018-02-22T23:51:01.548Z,65.80
2018-02-22T23:53:29.096Z,66.00
2018-02-22T23:55:56.679Z,65.70
2018-02-22T23:58:24.335Z,65.70
